• Join FlightAware (Why Join?)
  • Login
  • US Flag 
08:42AM EDT


 

Airport Tracker/Info


-or-


 

Live Flight TrackerFlight Track Log ✈ N230DS ✈ 03-May-2012 ✈ KSLC - KENV

Flight Track Log - Related Links

Times and Time Zones

All times are in EDT time to prevent confusion due to time zone crossing. See the N230DS flight status page for this flight to view local times or setup timezone preferences in your user account.

Time Position Orientation Groundspeed Altitude Reporting Facility
EDT Latitude Longitude Course Direction KTS MPH feet Rate Location/Type
12:15AM 40.7575 -112.1800 235° Southwest 135 155 5,500  Level Salt Lake Center
12:16AM 40.7369 -112.2181 236° Southwest 117 135 6,100 540 Climbing Salt Lake Center
12:17AM 40.7214 -112.2486 246° West 104 120 6,600 180 Climbing Salt Lake Center
12:18AM 40.7058 -112.2942 273° West 130 150 6,500 -60 Descending Salt Lake Center
12:19AM 40.7075 -112.3403 278° West 129 148 6,500  Level Salt Lake Center
12:20AM 40.7128 -112.3886 281° West 131 151 6,500  Level Salt Lake Center
12:21AM 40.7197 -112.4367 279° West 132 152 6,500  Level Salt Lake Center
12:22AM 40.7256 -112.4844 270° West 132 152 6,500  Level Salt Lake Center
12:23AM 40.7258 -112.5303 279° West 126 145 6,500  Level Salt Lake Center
12:24AM 40.7311 -112.5728 290° West 118 136 6,600 60 Climbing Salt Lake Center
12:25AM 40.7425 -112.6147 285° West 119 137 6,700 -60 Climbing Salt Lake Center
12:26AM 40.7519 -112.6608 271° West 133 153 6,500 -180 Descending Salt Lake Center
12:27AM 40.7528 -112.7097 279° West 130 150 6,400  Descending Salt Lake Center
12:28AM 40.7583 -112.7547 295° West 124 143 6,500 180 Climbing Salt Lake Center
12:29AM 40.7719 -112.7936 303° West 122 140 6,800 240 Climbing Salt Lake Center
12:30AM 40.7906 -112.8314 303° West 122 140 7,000 120 Climbing Salt Lake Center
12:31AM 40.8097 -112.8706 295° West 124 143 7,100 180 Climbing Salt Lake Center
12:32AM 40.8239 -112.9100 225° Southwest 121 139 7,400 -60 Climbing Salt Lake Center
12:33AM 40.7911 -112.9539 228° Southwest 142 163 7,000 -540 Descending Salt Lake Center
12:34AM 40.7672 -112.9889 242° Southwest 134 154 6,400 -300 Descending Salt Lake Center
12:35AM 40.7511 -113.0289 251° West 127 146 6,500  Climbing Salt Lake Center
12:36AM 40.7400 -113.0725 250° West 125 144 6,400 -60 Descending Salt Lake Center
12:37AM 40.7278 -113.1164 258° West 125 144 6,400  Level Salt Lake Center
12:38AM 40.7203 -113.1636 273° West 128 147 6,400 60 Level Salt Lake Center
12:39AM 40.7222 -113.2106 276° West 125 144 6,600  Climbing Salt Lake Center
12:40AM 40.7256 -113.2519 266° West 118 136 6,400  Descending Salt Lake Center
12:41AM 40.7233 -113.2928 255° West 113 130 6,600 60 Climbing Salt Lake Center
12:42AM 40.7139 -113.3394 254° West 121 139 6,600  Level Salt Lake Center
12:43AM 40.7039 -113.3858 257° West 128 147 6,600  Level Salt Lake Center
12:44AM 40.6956 -113.4350 266° West 134 154 6,600  Level Salt Lake Center
12:45AM 40.6931 -113.4831 273° West 132 152 6,600 -60 Level Salt Lake Center
12:46AM 40.6950 -113.5386 272° West 130 150 6,500 -60 Descending Salt Lake Center
12:47AM 40.6961 -113.5886 274° West 131 151 6,500  Level Salt Lake Center
12:48AM 40.6986 -113.6378 277° West 133 153 6,600 120 Climbing Salt Lake Center
12:49AM 40.7031 -113.6867 277° West 133 153 6,800 180 Climbing Salt Lake Center